sensor_id;sensor_type;location;lat;lon;timestamp;temperature;humidity
16287;DHT22;8251;53.568;10.018;2023-02-21T00:00:33;11.50;96.50
16287;DHT22;8251;53.568;10.018;2023-02-21T00:03:17;11.50;96.50
16287;DHT22;8251;53.568;10.018;2023-02-21T00:06:03;11.50;96.50
16287;DHT22;8251;53.568;10.018;2023-02-21T00:08:47;11.50;96.40
16287;DHT22;8251;53.568;10.018;2023-02-21T00:11:31;11.50;96.50
16287;DHT22;8251;53.568;10.018;2023-02-21T00:14:15;11.50;96.50
16287;DHT22;8251;53.568;10.018;2023-02-21T00:17:00;11.50;96.50
16287;DHT22;8251;53.568;10.018;2023-02-21T00:19:44;11.50;96.50
16287;DHT22;8251;53.568;10.018;2023-02-21T00:22:30;11.50;96.40
16287;DHT22;8251;53.568;10.018;2023-02-21T00:25:17;11.50;96.40
16287;DHT22;8251;53.568;10.018;2023-02-21T00:28:01;11.50;96.40
16287;DHT22;8251;53.568;10.018;2023-02-21T00:30:46;11.40;96.40
16287;DHT22;8251;53.568;10.018;2023-02-21T00:33:30;11.40;96.50
16287;DHT22;8251;53.568;10.018;2023-02-21T00:36:15;11.40;96.40
16287;DHT22;8251;53.568;10.018;2023-02-21T00:39:01;11.50;96.40
16287;DHT22;8251;53.568;10.018;2023-02-21T00:41:52;11.50;96.40
16287;DHT22;8251;53.568;10.018;2023-02-21T00:44:39;11.50;96.30
16287;DHT22;8251;53.568;10.018;2023-02-21T00:47:24;11.40;96.10
16287;DHT22;8251;53.568;10.018;2023-02-21T00:50:09;11.40;96.30
16287;DHT22;8251;53.568;10.018;2023-02-21T00:52:53;11.40;96.40
16287;DHT22;8251;53.568;10.018;2023-02-21T00:55:38;11.40;96.30
16287;DHT22;8251;53.568;10.018;2023-02-21T00:58:23;11.40;96.40
16287;DHT22;8251;53.568;10.018;2023-02-21T01:01:07;11.30;96.30
16287;DHT22;8251;53.568;10.018;2023-02-21T01:03:52;11.30;96.40
16287;DHT22;8251;53.568;10.018;2023-02-21T01:06:36;11.40;96.40
16287;DHT22;8251;53.568;10.018;2023-02-21T01:09:23;11.40;96.40
16287;DHT22;8251;53.568;10.018;2023-02-21T01:12:09;11.40;96.20
16287;DHT22;8251;53.568;10.018;2023-02-21T01:14:53;11.40;96.30
16287;DHT22;8251;53.568;10.018;2023-02-21T01:17:41;11.40;96.20
16287;DHT22;8251;53.568;10.018;2023-02-21T01:20:25;11.40;96.30
16287;DHT22;8251;53.568;10.018;2023-02-21T01:23:09;11.40;96.30
16287;DHT22;8251;53.568;10.018;2023-02-21T01:25:53;11.40;96.20
16287;DHT22;8251;53.568;10.018;2023-02-21T01:28:39;11.30;96.20
16287;DHT22;8251;53.568;10.018;2023-02-21T01:31:26;11.30;96.10
16287;DHT22;8251;53.568;10.018;2023-02-21T01:34:10;11.40;96.20
16287;DHT22;8251;53.568;10.018;2023-02-21T01:36:57;11.40;96.10
16287;DHT22;8251;53.568;10.018;2023-02-21T01:39:42;11.30;96.20
16287;DHT22;8251;53.568;10.018;2023-02-21T01:42:26;11.30;96.10
16287;DHT22;8251;53.568;10.018;2023-02-21T01:45:42;11.30;96.10
16287;DHT22;8251;53.568;10.018;2023-02-21T01:48:27;11.30;96.10
16287;DHT22;8251;53.568;10.018;2023-02-21T01:51:15;11.20;96.30
16287;DHT22;8251;53.568;10.018;2023-02-21T01:54:00;11.30;96.30
16287;DHT22;8251;53.568;10.018;2023-02-21T01:56:46;11.30;96.40
16287;DHT22;8251;53.568;10.018;2023-02-21T01:59:31;11.30;96.20
16287;DHT22;8251;53.568;10.018;2023-02-21T02:02:23;11.30;96.20
16287;DHT22;8251;53.568;10.018;2023-02-21T02:05:13;11.30;96.20
16287;DHT22;8251;53.568;10.018;2023-02-21T02:07:58;11.30;96.20
16287;DHT22;8251;53.568;10.018;2023-02-21T02:10:43;11.30;96.10
16287;DHT22;8251;53.568;10.018;2023-02-21T02:13:42;11.30;96.10
16287;DHT22;8251;53.568;10.018;2023-02-21T02:16:19;11.30;96.00
16287;DHT22;8251;53.568;10.018;2023-02-21T02:19:07;11.40;95.90
16287;DHT22;8251;53.568;10.018;2023-02-21T02:27:52;11.40;95.80
16287;DHT22;8251;53.568;10.018;2023-02-21T02:31:04;11.40;95.90
16287;DHT22;8251;53.568;10.018;2023-02-21T02:33:58;11.40;95.80
16287;DHT22;8251;53.568;10.018;2023-02-21T02:36:34;11.30;95.90
16287;DHT22;8251;53.568;10.018;2023-02-21T02:39:11;11.30;96.00
16287;DHT22;8251;53.568;10.018;2023-02-21T02:41:46;11.40;96.00
16287;DHT22;8251;53.568;10.018;2023-02-21T02:44:19;11.40;96.00
16287;DHT22;8251;53.568;10.018;2023-02-21T02:46:49;11.40;95.90
16287;DHT22;8251;53.568;10.018;2023-02-21T02:49:21;11.40;95.90
16287;DHT22;8251;53.568;10.018;2023-02-21T02:52:01;11.30;95.90
16287;DHT22;8251;53.568;10.018;2023-02-21T02:54:28;11.40;96.00
16287;DHT22;8251;53.568;10.018;2023-02-21T02:57:05;11.40;95.90
16287;DHT22;8251;53.568;10.018;2023-02-21T02:59:40;11.40;95.90
16287;DHT22;8251;53.568;10.018;2023-02-21T03:02:38;11.30;95.90
16287;DHT22;8251;53.568;10.018;2023-02-21T03:05:16;11.40;95.90
16287;DHT22;8251;53.568;10.018;2023-02-21T03:07:56;11.30;95.90
16287;DHT22;8251;53.568;10.018;2023-02-21T03:10:31;11.30;96.00
16287;DHT22;8251;53.568;10.018;2023-02-21T03:13:05;11.30;96.00
16287;DHT22;8251;53.568;10.018;2023-02-21T03:15:39;11.30;95.90
16287;DHT22;8251;53.568;10.018;2023-02-21T03:18:15;11.40;96.00
16287;DHT22;8251;53.568;10.018;2023-02-21T03:20:43;11.30;95.90
16287;DHT22;8251;53.568;10.018;2023-02-21T03:23:15;11.30;96.00
16287;DHT22;8251;53.568;10.018;2023-02-21T03:25:49;11.30;96.00
16287;DHT22;8251;53.568;10.018;2023-02-21T03:28:18;11.30;96.10
16287;DHT22;8251;53.568;10.018;2023-02-21T03:30:55;11.30;96.00
16287;DHT22;8251;53.568;10.018;2023-02-21T03:33:23;11.30;96.10
16287;DHT22;8251;53.568;10.018;2023-02-21T03:35:53;11.30;95.90
16287;DHT22;8251;53.568;10.018;2023-02-21T03:38:22;11.30;95.90
16287;DHT22;8251;53.568;10.018;2023-02-21T03:40:52;11.30;95.80
16287;DHT22;8251;53.568;10.018;2023-02-21T03:43:19;11.30;95.90
16287;DHT22;8251;53.568;10.018;2023-02-21T03:45:46;11.30;95.80
16287;DHT22;8251;53.568;10.018;2023-02-21T03:48:13;11.30;95.80
16287;DHT22;8251;53.568;10.018;2023-02-21T03:50:43;11.30;95.90
16287;DHT22;8251;53.568;10.018;2023-02-21T03:53:11;11.30;95.70
16287;DHT22;8251;53.568;10.018;2023-02-21T03:55:41;11.30;96.10
16287;DHT22;8251;53.568;10.018;2023-02-21T03:58:08;11.30;95.70
16287;DHT22;8251;53.568;10.018;2023-02-21T04:00:40;11.40;95.80
16287;DHT22;8251;53.568;10.018;2023-02-21T04:03:13;11.40;95.80
16287;DHT22;8251;53.568;10.018;2023-02-21T04:05:40;11.40;95.80
16287;DHT22;8251;53.568;10.018;2023-02-21T04:08:07;11.40;95.60
16287;DHT22;8251;53.568;10.018;2023-02-21T04:10:44;11.40;95.60
16287;DHT22;8251;53.568;10.018;2023-02-21T04:13:14;11.40;95.50
16287;DHT22;8251;53.568;10.018;2023-02-21T04:15:41;11.40;95.50
16287;DHT22;8251;53.568;10.018;2023-02-21T04:18:08;11.30;95.60
16287;DHT22;8251;53.568;10.018;2023-02-21T04:20:38;11.30;95.50
16287;DHT22;8251;53.568;10.018;2023-02-21T04:23:07;11.30;95.60
16287;DHT22;8251;53.568;10.018;2023-02-21T04:25:34;11.20;95.80
16287;DHT22;8251;53.568;10.018;2023-02-21T04:28:03;11.20;95.60
16287;DHT22;8251;53.568;10.018;2023-02-21T04:30:30;11.10;95.70
16287;DHT22;8251;53.568;10.018;2023-02-21T04:32:58;11.10;95.60
16287;DHT22;8251;53.568;10.018;2023-02-21T04:35:24;11.00;95.70
16287;DHT22;8251;53.568;10.018;2023-02-21T04:37:53;11.10;95.70
16287;DHT22;8251;53.568;10.018;2023-02-21T04:40:19;11.10;95.50
16287;DHT22;8251;53.568;10.018;2023-02-21T04:42:46;11.00;95.20
16287;DHT22;8251;53.568;10.018;2023-02-21T04:45:15;10.90;94.60
16287;DHT22;8251;53.568;10.018;2023-02-21T04:47:42;10.90;95.10
16287;DHT22;8251;53.568;10.018;2023-02-21T04:50:09;11.00;94.30
16287;DHT22;8251;53.568;10.018;2023-02-21T04:52:36;10.90;93.80
16287;DHT22;8251;53.568;10.018;2023-02-21T04:55:05;10.90;93.40
16287;DHT22;8251;53.568;10.018;2023-02-21T04:57:35;10.80;93.30
16287;DHT22;8251;53.568;10.018;2023-02-21T05:00:03;10.80;93.20
16287;DHT22;8251;53.568;10.018;2023-02-21T05:02:33;10.80;92.70
16287;DHT22;8251;53.568;10.018;2023-02-21T05:05:02;10.80;92.70
16287;DHT22;8251;53.568;10.018;2023-02-21T05:07:30;10.70;92.70
16287;DHT22;8251;53.568;10.018;2023-02-21T05:09:58;10.70;92.80
16287;DHT22;8251;53.568;10.018;2023-02-21T05:12:25;10.70;92.70
16287;DHT22;8251;53.568;10.018;2023-02-21T05:14:52;10.70;92.80
16287;DHT22;8251;53.568;10.018;2023-02-21T05:17:19;10.60;93.00
16287;DHT22;8251;53.568;10.018;2023-02-21T05:19:48;10.70;92.90
16287;DHT22;8251;53.568;10.018;2023-02-21T05:22:15;10.70;93.00
16287;DHT22;8251;53.568;10.018;2023-02-21T05:24:45;10.70;93.10
16287;DHT22;8251;53.568;10.018;2023-02-21T05:27:14;10.70;93.10
16287;DHT22;8251;53.568;10.018;2023-02-21T05:29:41;10.70;93.20
16287;DHT22;8251;53.568;10.018;2023-02-21T05:32:08;10.60;93.10
16287;DHT22;8251;53.568;10.018;2023-02-21T05:34:35;10.60;93.20
16287;DHT22;8251;53.568;10.018;2023-02-21T05:37:05;10.70;93.30
16287;DHT22;8251;53.568;10.018;2023-02-21T05:39:32;10.70;93.30
16287;DHT22;8251;53.568;10.018;2023-02-21T05:41:59;10.60;93.40
16287;DHT22;8251;53.568;10.018;2023-02-21T05:44:26;10.60;93.30
16287;DHT22;8251;53.568;10.018;2023-02-21T05:46:54;10.60;93.50
16287;DHT22;8251;53.568;10.018;2023-02-21T05:49:21;10.60;93.60
16287;DHT22;8251;53.568;10.018;2023-02-21T05:51:50;10.60;93.60
16287;DHT22;8251;53.568;10.018;2023-02-21T05:54:20;10.60;93.40
16287;DHT22;8251;53.568;10.018;2023-02-21T05:56:48;10.60;93.30
16287;DHT22;8251;53.568;10.018;2023-02-21T05:59:16;10.60;93.40
16287;DHT22;8251;53.568;10.018;2023-02-21T06:01:44;10.60;93.20
16287;DHT22;8251;53.568;10.018;2023-02-21T06:04:13;10.70;93.20
16287;DHT22;8251;53.568;10.018;2023-02-21T06:06:42;10.60;92.80
16287;DHT22;8251;53.568;10.018;2023-02-21T06:09:09;10.60;92.70
16287;DHT22;8251;53.568;10.018;2023-02-21T06:11:38;10.60;92.70
16287;DHT22;8251;53.568;10.018;2023-02-21T06:14:08;10.60;93.10
16287;DHT22;8251;53.568;10.018;2023-02-21T06:16:41;10.60;92.70
16287;DHT22;8251;53.568;10.018;2023-02-21T06:19:09;10.70;92.70
16287;DHT22;8251;53.568;10.018;2023-02-21T06:21:37;10.60;92.40
16287;DHT22;8251;53.568;10.018;2023-02-21T06:24:05;10.60;92.40
16287;DHT22;8251;53.568;10.018;2023-02-21T06:26:32;10.60;92.50
16287;DHT22;8251;53.568;10.018;2023-02-21T06:29:01;10.60;92.40
16287;DHT22;8251;53.568;10.018;2023-02-21T06:31:28;10.70;92.40
16287;DHT22;8251;53.568;10.018;2023-02-21T06:33:57;10.70;92.40
16287;DHT22;8251;53.568;10.018;2023-02-21T06:36:26;10.70;92.20
16287;DHT22;8251;53.568;10.018;2023-02-21T06:38:55;10.70;92.30
16287;DHT22;8251;53.568;10.018;2023-02-21T06:41:23;10.70;92.10
16287;DHT22;8251;53.568;10.018;2023-02-21T06:43:52;10.70;92.20
16287;DHT22;8251;53.568;10.018;2023-02-21T06:46:26;10.60;92.10
16287;DHT22;8251;53.568;10.018;2023-02-21T06:48:53;10.60;92.20
16287;DHT22;8251;53.568;10.018;2023-02-21T06:51:20;10.60;92.20
16287;DHT22;8251;53.568;10.018;2023-02-21T06:53:53;10.60;92.30
16287;DHT22;8251;53.568;10.018;2023-02-21T06:56:21;10.60;92.00
16287;DHT22;8251;53.568;10.018;2023-02-21T06:58:48;10.60;92.10
16287;DHT22;8251;53.568;10.018;2023-02-21T07:01:15;10.70;92.00
16287;DHT22;8251;53.568;10.018;2023-02-21T07:03:45;10.70;92.00
16287;DHT22;8251;53.568;10.018;2023-02-21T07:06:13;10.70;92.20
16287;DHT22;8251;53.568;10.018;2023-02-21T07:08:40;10.70;91.90
16287;DHT22;8251;53.568;10.018;2023-02-21T07:11:07;10.70;91.80
16287;DHT22;8251;53.568;10.018;2023-02-21T07:13:34;10.70;91.90
16287;DHT22;8251;53.568;10.018;2023-02-21T07:16:04;10.70;91.90
16287;DHT22;8251;53.568;10.018;2023-02-21T07:18:34;10.80;91.90
16287;DHT22;8251;53.568;10.018;2023-02-21T07:21:02;10.80;91.70
16287;DHT22;8251;53.568;10.018;2023-02-21T07:23:29;10.90;91.70
16287;DHT22;8251;53.568;10.018;2023-02-21T07:25:56;10.90;91.60
16287;DHT22;8251;53.568;10.018;2023-02-21T07:28:23;10.90;91.60
16287;DHT22;8251;53.568;10.018;2023-02-21T07:30:51;10.90;91.40
16287;DHT22;8251;53.568;10.018;2023-02-21T07:33:23;11.00;91.60
16287;DHT22;8251;53.568;10.018;2023-02-21T07:35:54;10.90;91.60
16287;DHT22;8251;53.568;10.018;2023-02-21T07:38:28;11.00;91.60
16287;DHT22;8251;53.568;10.018;2023-02-21T07:40:58;11.00;91.60
16287;DHT22;8251;53.568;10.018;2023-02-21T07:43:26;11.10;91.70
16287;DHT22;8251;53.568;10.018;2023-02-21T07:45:53;11.10;91.70
16287;DHT22;8251;53.568;10.018;2023-02-21T07:48:21;11.10;91.70
16287;DHT22;8251;53.568;10.018;2023-02-21T07:50:48;11.20;91.60
16287;DHT22;8251;53.568;10.018;2023-02-21T07:53:18;11.20;91.70
16287;DHT22;8251;53.568;10.018;2023-02-21T07:56:06;11.10;91.70
16287;DHT22;8251;53.568;10.018;2023-02-21T07:58:37;11.20;92.10
16287;DHT22;8251;53.568;10.018;2023-02-21T08:01:05;11.10;91.70
16287;DHT22;8251;53.568;10.018;2023-02-21T08:03:32;11.20;91.70
16287;DHT22;8251;53.568;10.018;2023-02-21T08:05:59;11.20;91.80
16287;DHT22;8251;53.568;10.018;2023-02-21T08:08:26;11.20;91.70
16287;DHT22;8251;53.568;10.018;2023-02-21T08:10:56;11.40;91.80
16287;DHT22;8251;53.568;10.018;2023-02-21T08:13:24;11.50;91.70
16287;DHT22;8251;53.568;10.018;2023-02-21T08:15:52;11.60;91.50
16287;DHT22;8251;53.568;10.018;2023-02-21T08:18:21;11.60;91.40
16287;DHT22;8251;53.568;10.018;2023-02-21T08:20:52;11.70;91.50
16287;DHT22;8251;53.568;10.018;2023-02-21T08:23:20;11.80;91.20
16287;DHT22;8251;53.568;10.018;2023-02-21T08:25:47;11.90;91.10
16287;DHT22;8251;53.568;10.018;2023-02-21T08:28:15;12.00;91.00
16287;DHT22;8251;53.568;10.018;2023-02-21T08:30:43;12.00;90.60
16287;DHT22;8251;53.568;10.018;2023-02-21T08:33:11;12.10;89.70
16287;DHT22;8251;53.568;10.018;2023-02-21T08:35:38;12.00;89.90
16287;DHT22;8251;53.568;10.018;2023-02-21T08:38:05;12.10;89.70
16287;DHT22;8251;53.568;10.018;2023-02-21T08:40:33;12.00;88.90
16287;DHT22;8251;53.568;10.018;2023-02-21T08:43:00;11.90;89.50
16287;DHT22;8251;53.568;10.018;2023-02-21T08:45:29;11.90;89.20
16287;DHT22;8251;53.568;10.018;2023-02-21T08:47:58;12.00;89.70
16287;DHT22;8251;53.568;10.018;2023-02-21T08:50:27;12.10;89.30
16287;DHT22;8251;53.568;10.018;2023-02-21T08:52:55;12.20;89.30
16287;DHT22;8251;53.568;10.018;2023-02-21T08:55:24;12.50;88.50
16287;DHT22;8251;53.568;10.018;2023-02-21T08:57:54;12.60;86.90
16287;DHT22;8251;53.568;10.018;2023-02-21T09:00:27;12.60;86.60
16287;DHT22;8251;53.568;10.018;2023-02-21T09:03:00;12.70;86.70
16287;DHT22;8251;53.568;10.018;2023-02-21T09:05:29;12.60;86.50
16287;DHT22;8251;53.568;10.018;2023-02-21T09:08:01;12.70;86.60
16287;DHT22;8251;53.568;10.018;2023-02-21T09:10:31;12.60;86.10
16287;DHT22;8251;53.568;10.018;2023-02-21T09:12:59;12.60;86.50
16287;DHT22;8251;53.568;10.018;2023-02-21T09:15:26;12.50;86.10
16287;DHT22;8251;53.568;10.018;2023-02-21T09:17:53;12.50;86.70
16287;DHT22;8251;53.568;10.018;2023-02-21T09:20:23;12.50;86.80
16287;DHT22;8251;53.568;10.018;2023-02-21T09:22:53;12.40;86.90
16287;DHT22;8251;53.568;10.018;2023-02-21T09:25:22;12.40;87.30
16287;DHT22;8251;53.568;10.018;2023-02-21T09:27:49;12.40;86.70
16287;DHT22;8251;53.568;10.018;2023-02-21T09:30:18;12.30;86.80
16287;DHT22;8251;53.568;10.018;2023-02-21T09:32:48;12.40;87.20
16287;DHT22;8251;53.568;10.018;2023-02-21T09:35:15;12.50;86.50
16287;DHT22;8251;53.568;10.018;2023-02-21T09:37:45;12.50;86.50
16287;DHT22;8251;53.568;10.018;2023-02-21T09:40:20;12.40;86.00
16287;DHT22;8251;53.568;10.018;2023-02-21T09:42:54;12.50;86.40
16287;DHT22;8251;53.568;10.018;2023-02-21T09:45:30;12.50;86.20
16287;DHT22;8251;53.568;10.018;2023-02-21T09:48:08;12.60;85.80
16287;DHT22;8251;53.568;10.018;2023-02-21T09:50:42;12.60;85.90
16287;DHT22;8251;53.568;10.018;2023-02-21T09:53:13;12.60;85.40
16287;DHT22;8251;53.568;10.018;2023-02-21T09:55:42;12.60;85.00
16287;DHT22;8251;53.568;10.018;2023-02-21T09:58:13;12.60;84.50
16287;DHT22;8251;53.568;10.018;2023-02-21T10:00:40;12.60;84.30
16287;DHT22;8251;53.568;10.018;2023-02-21T10:03:23;12.70;84.40
16287;DHT22;8251;53.568;10.018;2023-02-21T10:05:57;12.70;84.20
16287;DHT22;8251;53.568;10.018;2023-02-21T10:08:33;12.70;83.90
16287;DHT22;8251;53.568;10.018;2023-02-21T10:11:20;12.70;82.80
16287;DHT22;8251;53.568;10.018;2023-02-21T10:14:08;12.80;82.40
16287;DHT22;8251;53.568;10.018;2023-02-21T10:16:46;12.80;82.60
16287;DHT22;8251;53.568;10.018;2023-02-21T10:19:20;12.90;82.60
16287;DHT22;8251;53.568;10.018;2023-02-21T10:21:52;13.00;82.60
16287;DHT22;8251;53.568;10.018;2023-02-21T10:24:29;13.00;82.90
16287;DHT22;8251;53.568;10.018;2023-02-21T10:27:03;13.10;82.70
16287;DHT22;8251;53.568;10.018;2023-02-21T10:29:41;13.10;82.30
16287;DHT22;8251;53.568;10.018;2023-02-21T10:32:11;13.10;80.40
16287;DHT22;8251;53.568;10.018;2023-02-21T10:34:38;13.10;80.70
16287;DHT22;8251;53.568;10.018;2023-02-21T10:37:22;13.20;81.00
16287;DHT22;8251;53.568;10.018;2023-02-21T10:39:54;13.30;80.50
16287;DHT22;8251;53.568;10.018;2023-02-21T10:42:35;13.40;80.50
16287;DHT22;8251;53.568;10.018;2023-02-21T10:45:04;13.50;80.90
16287;DHT22;8251;53.568;10.018;2023-02-21T10:47:43;13.60;81.30
16287;DHT22;8251;53.568;10.018;2023-02-21T10:50:14;13.70;80.70
16287;DHT22;8251;53.568;10.018;2023-02-21T10:52:49;13.80;80.60
16287;DHT22;8251;53.568;10.018;2023-02-21T10:55:20;13.80;78.70
16287;DHT22;8251;53.568;10.018;2023-02-21T10:57:53;13.80;78.40
16287;DHT22;8251;53.568;10.018;2023-02-21T11:00:24;13.90;78.40
16287;DHT22;8251;53.568;10.018;2023-02-21T11:02:54;13.90;79.00
16287;DHT22;8251;53.568;10.018;2023-02-21T11:05:26;13.90;77.90
16287;DHT22;8251;53.568;10.018;2023-02-21T11:07:59;13.90;77.10
16287;DHT22;8251;53.568;10.018;2023-02-21T11:10:30;13.90;77.20
16287;DHT22;8251;53.568;10.018;2023-02-21T11:13:13;13.90;76.50
16287;DHT22;8251;53.568;10.018;2023-02-21T11:15:46;13.90;76.50
16287;DHT22;8251;53.568;10.018;2023-02-21T11:18:16;13.90;75.90
16287;DHT22;8251;53.568;10.018;2023-02-21T11:20:44;13.80;75.70
16287;DHT22;8251;53.568;10.018;2023-02-21T11:23:20;13.80;76.70
16287;DHT22;8251;53.568;10.018;2023-02-21T11:25:53;13.80;76.90
16287;DHT22;8251;53.568;10.018;2023-02-21T11:28:24;13.90;76.90
16287;DHT22;8251;53.568;10.018;2023-02-21T11:31:12;14.00;77.20
16287;DHT22;8251;53.568;10.018;2023-02-21T11:33:47;14.20;76.70
16287;DHT22;8251;53.568;10.018;2023-02-21T11:36:17;14.40;75.80
16287;DHT22;8251;53.568;10.018;2023-02-21T11:39:00;14.40;76.20
16287;DHT22;8251;53.568;10.018;2023-02-21T11:41:44;14.40;75.60
16287;DHT22;8251;53.568;10.018;2023-02-21T11:44:28;14.40;75.20
16287;DHT22;8251;53.568;10.018;2023-02-21T11:47:11;14.20;75.90
16287;DHT22;8251;53.568;10.018;2023-02-21T11:49:47;14.20;76.00
16287;DHT22;8251;53.568;10.018;2023-02-21T11:52:21;14.20;75.80
16287;DHT22;8251;53.568;10.018;2023-02-21T11:54:48;14.20;76.40
16287;DHT22;8251;53.568;10.018;2023-02-21T11:57:20;14.20;76.30
16287;DHT22;8251;53.568;10.018;2023-02-21T11:59:58;14.20;77.00
16287;DHT22;8251;53.568;10.018;2023-02-21T12:02:50;14.20;77.10
16287;DHT22;8251;53.568;10.018;2023-02-21T12:05:31;14.20;77.60
16287;DHT22;8251;53.568;10.018;2023-02-21T12:08:20;14.20;77.80
16287;DHT22;8251;53.568;10.018;2023-02-21T12:10:57;14.20;78.30
16287;DHT22;8251;53.568;10.018;2023-02-21T12:13:41;14.10;79.00
16287;DHT22;8251;53.568;10.018;2023-02-21T12:16:22;14.10;79.20
16287;DHT22;8251;53.568;10.018;2023-02-21T12:19:08;14.10;80.50
16287;DHT22;8251;53.568;10.018;2023-02-21T12:21:50;14.00;80.20
16287;DHT22;8251;53.568;10.018;2023-02-21T12:24:36;13.90;80.50
16287;DHT22;8251;53.568;10.018;2023-02-21T12:27:13;13.80;80.80
16287;DHT22;8251;53.568;10.018;2023-02-21T12:29:53;13.70;81.30
16287;DHT22;8251;53.568;10.018;2023-02-21T12:32:41;13.70;81.50
16287;DHT22;8251;53.568;10.018;2023-02-21T12:35:38;13.70;81.90
16287;DHT22;8251;53.568;10.018;2023-02-21T12:38:10;13.50;83.00
16287;DHT22;8251;53.568;10.018;2023-02-21T12:40:46;13.50;83.30
16287;DHT22;8251;53.568;10.018;2023-02-21T12:43:26;13.50;83.90
16287;DHT22;8251;53.568;10.018;2023-02-21T12:46:04;13.40;84.70
16287;DHT22;8251;53.568;10.018;2023-02-21T12:48:41;13.30;85.30
16287;DHT22;8251;53.568;10.018;2023-02-21T12:51:15;13.30;85.70
16287;DHT22;8251;53.568;10.018;2023-02-21T12:53:50;13.20;85.90
16287;DHT22;8251;53.568;10.018;2023-02-21T12:56:22;13.20;86.10
16287;DHT22;8251;53.568;10.018;2023-02-21T12:58:53;13.20;86.50
16287;DHT22;8251;53.568;10.018;2023-02-21T13:01:25;13.10;86.30
16287;DHT22;8251;53.568;10.018;2023-02-21T13:04:03;13.10;86.20
16287;DHT22;8251;53.568;10.018;2023-02-21T13:06:35;13.00;86.40
16287;DHT22;8251;53.568;10.018;2023-02-21T13:09:12;13.00;86.60
16287;DHT22;8251;53.568;10.018;2023-02-21T13:11:45;13.00;86.90
16287;DHT22;8251;53.568;10.018;2023-02-21T13:14:17;12.90;87.30
16287;DHT22;8251;53.568;10.018;2023-02-21T13:16:47;13.00;87.40
16287;DHT22;8251;53.568;10.018;2023-02-21T13:19:15;13.00;87.40
16287;DHT22;8251;53.568;10.018;2023-02-21T13:22:00;13.00;87.50
16287;DHT22;8251;53.568;10.018;2023-02-21T13:24:47;13.00;87.40
16287;DHT22;8251;53.568;10.018;2023-02-21T13:30:20;13.00;87.80
16287;DHT22;8251;53.568;10.018;2023-02-21T13:32:54;13.00;87.80
16287;DHT22;8251;53.568;10.018;2023-02-21T13:35:29;13.00;87.50
16287;DHT22;8251;53.568;10.018;2023-02-21T13:37:57;13.00;87.50
16287;DHT22;8251;53.568;10.018;2023-02-21T13:40:34;13.00;87.50
16287;DHT22;8251;53.568;10.018;2023-02-21T13:43:05;13.00;87.00
16287;DHT22;8251;53.568;10.018;2023-02-21T13:45:35;13.00;86.70
16287;DHT22;8251;53.568;10.018;2023-02-21T13:48:19;13.10;86.50
16287;DHT22;8251;53.568;10.018;2023-02-21T13:50:48;13.00;85.70
16287;DHT22;8251;53.568;10.018;2023-02-21T13:53:18;12.90;86.00
16287;DHT22;8251;53.568;10.018;2023-02-21T13:56:13;12.80;86.20
16287;DHT22;8251;53.568;10.018;2023-02-21T13:58:42;12.80;86.10
16287;DHT22;8251;53.568;10.018;2023-02-21T14:04:49;12.60;86.50
16287;DHT22;8251;53.568;10.018;2023-02-21T14:07:44;12.60;86.70
16287;DHT22;8251;53.568;10.018;2023-02-21T14:10:22;12.70;85.90
16287;DHT22;8251;53.568;10.018;2023-02-21T14:12:56;12.60;86.50
16287;DHT22;8251;53.568;10.018;2023-02-21T14:15:41;12.60;84.80
16287;DHT22;8251;53.568;10.018;2023-02-21T14:18:20;12.60;85.20
16287;DHT22;8251;53.568;10.018;2023-02-21T14:20:54;12.60;85.30
16287;DHT22;8251;53.568;10.018;2023-02-21T14:23:30;12.50;85.70
16287;DHT22;8251;53.568;10.018;2023-02-21T14:25:58;12.60;86.00
16287;DHT22;8251;53.568;10.018;2023-02-21T14:29:00;12.60;86.10
16287;DHT22;8251;53.568;10.018;2023-02-21T14:31:53;12.70;85.70
16287;DHT22;8251;53.568;10.018;2023-02-21T14:34:26;12.70;85.40
16287;DHT22;8251;53.568;10.018;2023-02-21T14:36:56;12.60;85.70
16287;DHT22;8251;53.568;10.018;2023-02-21T14:39:34;12.60;85.70
16287;DHT22;8251;53.568;10.018;2023-02-21T14:45:24;12.60;85.90
16287;DHT22;8251;53.568;10.018;2023-02-21T14:48:31;12.60;86.00
16287;DHT22;8251;53.568;10.018;2023-02-21T14:54:31;12.50;86.20
16287;DHT22;8251;53.568;10.018;2023-02-21T15:00:16;12.40;86.40
16287;DHT22;8251;53.568;10.018;2023-02-21T15:02:49;12.50;86.70
16287;DHT22;8251;53.568;10.018;2023-02-21T15:05:20;12.50;86.90
16287;DHT22;8251;53.568;10.018;2023-02-21T15:07:58;12.40;87.10
16287;DHT22;8251;53.568;10.018;2023-02-21T15:10:28;12.40;87.30
16287;DHT22;8251;53.568;10.018;2023-02-21T15:12:58;12.40;87.50
16287;DHT22;8251;53.568;10.018;2023-02-21T15:15:27;12.50;87.60
16287;DHT22;8251;53.568;10.018;2023-02-21T15:17:58;12.50;87.60
16287;DHT22;8251;53.568;10.018;2023-02-21T15:20:25;12.50;87.60
16287;DHT22;8251;53.568;10.018;2023-02-21T15:22:55;12.50;87.70
16287;DHT22;8251;53.568;10.018;2023-02-21T15:25:23;12.50;87.60
16287;DHT22;8251;53.568;10.018;2023-02-21T15:28:06;12.40;87.50
16287;DHT22;8251;53.568;10.018;2023-02-21T15:30:37;12.40;87.60
16287;DHT22;8251;53.568;10.018;2023-02-21T15:33:11;12.40;87.60
16287;DHT22;8251;53.568;10.018;2023-02-21T15:35:47;12.40;87.80
16287;DHT22;8251;53.568;10.018;2023-02-21T15:38:28;12.40;87.90
16287;DHT22;8251;53.568;10.018;2023-02-21T15:41:00;12.40;88.00
16287;DHT22;8251;53.568;10.018;2023-02-21T15:46:21;12.40;87.90
16287;DHT22;8251;53.568;10.018;2023-02-21T15:48:49;12.30;88.10
16287;DHT22;8251;53.568;10.018;2023-02-21T15:51:17;12.30;88.60
16287;DHT22;8251;53.568;10.018;2023-02-21T15:54:06;12.30;88.80
16287;DHT22;8251;53.568;10.018;2023-02-21T15:56:33;12.20;89.10
16287;DHT22;8251;53.568;10.018;2023-02-21T15:59:12;12.20;89.10
16287;DHT22;8251;53.568;10.018;2023-02-21T16:01:43;12.20;88.90
16287;DHT22;8251;53.568;10.018;2023-02-21T16:04:14;12.20;89.30
16287;DHT22;8251;53.568;10.018;2023-02-21T16:06:49;12.10;89.30
16287;DHT22;8251;53.568;10.018;2023-02-21T16:09:25;12.10;90.00
16287;DHT22;8251;53.568;10.018;2023-02-21T16:11:58;12.00;90.10
16287;DHT22;8251;53.568;10.018;2023-02-21T16:14:34;11.90;90.10
16287;DHT22;8251;53.568;10.018;2023-02-21T16:17:15;11.90;90.30
16287;DHT22;8251;53.568;10.018;2023-02-21T16:19:47;11.80;90.50
16287;DHT22;8251;53.568;10.018;2023-02-21T16:22:28;11.80;90.40
16287;DHT22;8251;53.568;10.018;2023-02-21T16:25:10;11.80;90.30
16287;DHT22;8251;53.568;10.018;2023-02-21T16:27:39;11.90;90.30
16287;DHT22;8251;53.568;10.018;2023-02-21T16:30:15;11.80;90.50
16287;DHT22;8251;53.568;10.018;2023-02-21T16:32:45;11.80;90.30
16287;DHT22;8251;53.568;10.018;2023-02-21T16:35:14;11.80;90.30
16287;DHT22;8251;53.568;10.018;2023-02-21T16:37:46;11.80;90.30
16287;DHT22;8251;53.568;10.018;2023-02-21T16:40:18;11.80;90.40